Arlington, Kentucky
Current Conditions -  °F | °C
As of 2:15 PM on Saturday 25 Oct 2014 (Local Time) from KCIR Reporting Station
Clear Clear  
Wind Chill: 80°   Ceiling: Unl
Heat Index: 81°   Visibility: 10mi
Dew Point: 62°   Wind: 3mph
Humidity: 55%   Direction: 190°S
Pressure: 30"   Gusts: NA
Location:  36.79°N, 89.01°W
Report Text: KCIR 251915Z AUTO 19003KT 10SM CLR 26/17 A3000 RMK AO2 T02640166
Loading
Personal Weather Stations






























Interactive Weather Map New forecast layout! Learn more

10-Day Weather Forecast

Advertisements
Track Severe Weather on mobile